Flight Track Log - Related Links

Times and Time Zones

All times are in EDT time to prevent confusion due to time zone crossing. See the SWA2702 flight status page for this flight to view local times or setup timezone preferences in your user account.

Time Position Orientation Groundspeed Altitude Reporting Facility
EDT Latitude Longitude Course Direction KTS MPH feet Rate Location/Type
Thu 11:17:04 AM 33.6667 -117.8833 180° South 153 176 1,100  Level Southern California TRACON
Thu 11:18:04 AM 33.6167 -117.8833 180° South 156 180 2,800 1,350 Climbing Southern California TRACON
Thu 11:18:24 AM 33.6167 -117.8936 270° West 152 175 2,900 2,195 Climbing Los Angeles Center
Thu 11:19:26 AM 33.5589 -117.9014 186° South 169 194 5,800 2,855 Climbing Los Angeles Center
Thu 11:20:28 AM 33.4922 -117.9514 212° Southwest 266 306 8,800 3,387 Climbing Los Angeles Center
Thu 11:21:30 AM 33.4383 -118.0272 230° Southwest 312 359 12,800 3,145 Climbing Los Angeles Center
Thu 11:22:32 AM 33.4206 -118.1428 260° West 347 399 15,300 2,956 Climbing Los Angeles Center
Thu 11:23:46 AM 33.4339 -118.2817 277° West 367 422 19,500 3,372 Climbing Los Angeles Center
Thu 11:24:49 AM 33.5139 -118.3911 311° West 363 418 23,000 2,496 Climbing Los Angeles Center
Thu 11:25:51 AM 33.5833 -118.4867 311° West 371 427 24,700 1,839 Climbing Los Angeles Center
Thu 11:26:53 AM 33.6564 -118.5861 311° West 387 445 26,800 2,032 Climbing Los Angeles Center
Thu 11:27:55 AM 33.7331 -118.6908 311° West 409 471 28,900 2,081 Climbing Los Angeles Center
Thu 11:28:57 AM 33.8097 -118.7956 311° West 414 476 31,100 2,371 Climbing Los Angeles Center
Thu 11:29:59 AM 33.8844 -118.8994 311° West 409 471 33,800 2,129 Climbing Los Angeles Center
Thu 11:31:01 AM 33.9572 -119.0008 311° West 402 463 35,500 1,548 Climbing Los Angeles Center
Thu 11:32:03 AM 34.0478 -119.1261 311° West 411 473 37,000 1,210 Climbing Los Angeles Center
Thu 11:33:05 AM 34.1233 -119.2311 311° West 414 476 38,000 484 Climbing Los Angeles Center
Thu 11:34:07 AM 34.1989 -119.3375 311° West 416 479 38,000  Level Los Angeles Center
Thu 11:35:09 AM 34.2756 -119.4431 311° West 417 480 38,000  Level Los Angeles Center
Thu 11:36:11 AM 34.3489 -119.5489 310° West 412 474 38,000  Level Los Angeles Center
Thu 11:37:13 AM 34.4225 -119.6533 311° West 409 471 38,000  Level Los Angeles Center
Thu 11:38:16 AM 34.5117 -119.7761 311° West 405 466 38,000  Level Los Angeles Center
Thu 11:39:18 AM 34.5967 -119.8689 318° Northwest 410 472 38,000  Level Los Angeles Center
Thu 11:40:20 AM 34.6767 -119.9522 319° Northwest 408 470 38,000  Level Los Angeles Center
Thu 11:41:22 AM 34.7772 -120.0636 318° Northwest 407 468 38,000  Level Los Angeles Center
Thu 11:42:24 AM 34.8636 -120.1581 318° Northwest 416 479 38,000  Level Los Angeles Center
Thu 11:43:26 AM 34.9481 -120.2514 318° Northwest 416 479 38,000  Level Los Angeles Center
Thu 11:44:28 AM 35.0317 -120.3444 318° Northwest 414 476 38,000  Level Los Angeles Center
Thu 11:45:30 AM 35.1164 -120.4378 318° Northwest 414 476 38,000  Level Los Angeles Center
Thu 11:46:32 AM 35.2011 -120.5328 318° Northwest 416 479 38,000  Level Los Angeles Center
Thu 11:47:34 AM 35.3042 -120.6472 318° Northwest 419 482 38,000  Level Los Angeles Center
Thu 11:48:29 AM 35.3803 -120.7336 317° Northwest 420 483 38,000  Level Oakland Center
Thu 11:49:31 AM 35.4728 -120.8200 323° Northwest 416 479 38,000  Level Oakland Center
Thu 11:50:32 AM 35.5689 -120.9053 324° Northwest 423 487 38,000  Level Oakland Center
Thu 11:51:34 AM 35.6633 -120.9886 324° Northwest 417 480 38,000  Level Oakland Center
Thu 11:52:35 AM 35.7586 -121.0736 324° Northwest 420 483 38,000 -488 Level Oakland Center
Thu 11:53:37 AM 35.8533 -121.1589 324° Northwest 420 483 37,000 -1,415 Descending Oakland Center
Thu 11:54:38 AM 35.9467 -121.2406 325° Northwest 412 474 35,100 -2,098 Descending Oakland Center
Thu 11:55:40 AM 36.0544 -121.3367 324° Northwest 396 456 32,700 -2,146 Descending Oakland Center
Thu 11:56:41 AM 36.1389 -121.4178 322° Northwest 385 443 30,700 -1,707 Descending Oakland Center
Thu 11:57:43 AM 36.1603 -121.5461 282° West 386 444 29,200 -1,317 Descending Oakland Center
Thu 11:58:44 AM 36.1619 -121.6733 271° West 374 430 28,000 -1,122 Descending Oakland Center
Thu 11:59:46 AM 36.1661 -121.7997 272° West 369 425 26,900 -1,171 Descending Oakland Center
Thu 12:00:47 PM 36.1689 -121.9450 271° West 370 426 25,600 -1,073 Descending Oakland Center
Thu 12:01:49 PM 36.2342 -122.0211 317° Northwest 350 403 24,700 -927 Descending Oakland Center
Thu 12:02:50 PM 36.3292 -122.0122 North 339 390 23,700 -976 Descending Oakland Center
Thu 12:03:52 PM 36.4217 -122.0031 North 336 387 22,700 -1,122 Descending Oakland Center
Thu 12:04:53 PM 36.5119 -121.9942 North 328 377 21,400 -1,415 Descending Oakland Center
Thu 12:05:55 PM 36.6003 -121.9819 North 320 368 19,800 -1,742 Descending Oakland Center
Thu 12:06:57 PM 36.6856 -121.9725 North 310 357 17,800 -1,415 Descending Oakland Center
Thu 12:07:58 PM 36.7722 -121.9692 North 312 359 16,900 -595 Descending Oakland Center
Thu 12:08:48 PM 36.8500 -121.9833 352° North 261 300 16,700 -655 Descending Northern Cal TRACON
Thu 12:09:48 PM 36.9167 -122.0000 349° North 241 277 15,700 -850 Descending Northern Cal TRACON
Thu 12:10:48 PM 36.9833 -122.0333 338° Northwest 237 273 15,000 -640 Descending Northern Cal TRACON
Thu 12:11:03 PM 36.9897 -122.0278 35° Northeast 238 274 14,900 -789 Descending Oakland Center
Thu 12:12:04 PM 37.0344 -122.0775 318° Northwest 251 289 14,000 -878 Descending Oakland Center
Thu 12:13:06 PM 36.9875 -122.1219 217° Southwest 250 288 13,100 -488 Descending Oakland Center
Thu 12:14:07 PM 36.9211 -122.1017 166° South 250 288 13,000 -56 Descending Oakland Center
Thu 12:14:54 PM 36.8667 -122.0833 165° South 245 282 13,000  Level Northern Cal TRACON
Thu 12:15:54 PM 36.8000 -122.0500 158° South 248 285 13,000  Level Northern Cal TRACON
Thu 12:16:54 PM 36.8333 -121.9833 58° Northeast 253 291 13,000 -300 Level Northern Cal TRACON
Thu 12:17:54 PM 36.9000 -122.0000 349° North 237 273 12,400 -684 Descending Northern Cal TRACON
Thu 12:18:13 PM 36.9158 -122.0078 339° North 238 274 12,100 -963 Descending Oakland Center
Thu 12:19:15 PM 36.9792 -122.0236 349° North 233 268 11,100 -1,024 Descending Oakland Center
Thu 12:20:16 PM 37.0292 -122.0608 329° Northwest 228 262 10,000 -537 Descending Oakland Center
Thu 12:21:18 PM 36.9950 -122.1114 230° Southwest 233 268 10,000  Level Oakland Center
Thu 12:22:20 PM 36.9314 -122.0906 165° South 236 272 10,000  Level Oakland Center
Thu 12:23:21 PM 36.8675 -122.0733 168° South 235 270 10,000  Level Oakland Center
Thu 12:23:55 PM 36.8167 -122.0667 174° South 235 270 10,000  Level Northern Cal TRACON
Thu 12:24:55 PM 36.8167 -122.0000 90° East 255 293 10,000  Level Northern Cal TRACON
Thu 12:25:55 PM 36.8833 -122.0000 360° North 240 276 10,000  Level Northern Cal TRACON
Thu 12:26:26 PM 36.9181 -122.0111 346° North 239 275 10,000  Level Oakland Center
Thu 12:27:27 PM 36.9842 -122.0292 348° North 241 277 10,000  Level Oakland Center
Thu 12:28:29 PM 37.0492 -122.0464 348° North 239 275 10,000  Level Oakland Center
Thu 12:29:30 PM 37.1164 -122.0600 351° North 242 278 10,000 -49 Level Oakland Center
Thu 12:30:32 PM 37.1814 -122.0789 347° North 240 276 9,900 -439 Descending Oakland Center
Thu 12:31:33 PM 37.2125 -122.1389 303° West 221 254 9,100 -927 Descending Oakland Center
Thu 12:32:35 PM 37.2294 -122.2106 287° West 214 246 8,000 -1,122 Descending Oakland Center
Thu 12:33:36 PM 37.2956 -122.2392 341° North 211 243 6,800 -1,122 Descending Oakland Center
Thu 12:34:38 PM 37.3494 -122.2314 North 206 237 5,700 -927 Descending Oakland Center
Thu 12:35:39 PM 37.3753 -122.1672 63° Northeast 205 236 4,900 -829 Descending Oakland Center
Thu 12:36:41 PM 37.4150 -122.1292 37° Northeast 190 219 4,000 -651 Descending Oakland Center
Thu 12:37:02 PM 37.4333 -122.1167 28° Northeast 182 209 4,000 -741 Level Northern Cal TRACON
Thu 12:38:02 PM 37.4833 -122.1000 15° North 196 226 3,000 -500 Descending Northern Cal TRACON
Thu 12:39:02 PM 37.5167 -122.1500 310° West 189 217 3,000 -58 Level Northern Cal TRACON
Thu 12:39:45 PM 37.5333 -122.1758 309° West 188 216 2,900 -571 Descending Oakland Center
Thu 12:40:47 PM 37.5597 -122.2386 298° West 174 200 2,000 -878 Descending Oakland Center
Thu 12:41:48 PM 37.5811 -122.2894 298° West 169 194 1,100 -780 Descending Oakland Center
Thu 12:42:50 PM 37.5997 -122.3336 298° West 158 182 400 -677 Descending Oakland Center

Login

Don't have an account? Register now (free) for customized features, flight alerts, and more!